createdAt,value
2023-05-08T00:00:22.805Z,3.58
2023-05-08T00:03:11.309Z,3.80
2023-05-08T00:05:37.962Z,3.50
2023-05-08T00:08:04.740Z,3.97
2023-05-08T00:10:31.334Z,3.58
2023-05-08T00:13:23.971Z,4.00
2023-05-08T00:16:43.344Z,3.83
2023-05-08T00:31:02.098Z,3.85
2023-05-08T00:33:51.011Z,3.87
2023-05-08T00:36:17.556Z,4.12
2023-05-08T00:38:44.338Z,4.00
2023-05-08T00:41:10.922Z,3.65
2023-05-08T00:44:08.534Z,3.83
2023-05-08T00:49:13.240Z,3.90
2023-05-08T00:51:52.514Z,3.83
2023-05-08T00:54:19.751Z,4.07
2023-05-08T00:56:57.907Z,3.80
2023-05-08T00:59:25.115Z,4.25
2023-05-08T01:07:02.874Z,4.15
2023-05-08T01:09:29.483Z,3.95
2023-05-08T01:19:07.396Z,4.18
2023-05-08T01:21:44.392Z,4.03
2023-05-08T01:27:23.828Z,4.40
2023-05-08T01:30:12.382Z,4.15
2023-05-08T01:32:57.085Z,4.00
2023-05-08T01:38:18.628Z,4.40
2023-05-08T01:40:53.504Z,4.40
2023-05-08T01:43:25.840Z,4.20
2023-05-08T01:45:55.834Z,4.10
2023-05-08T01:48:35.194Z,4.10
2023-05-08T01:51:17.072Z,4.28
2023-05-08T01:53:51.609Z,3.80
2023-05-08T01:56:25.471Z,4.50
2023-05-08T02:04:59.138Z,4.12
2023-05-08T02:07:26.620Z,4.40
2023-05-08T02:09:54.701Z,3.95
2023-05-08T02:12:23.158Z,4.07
2023-05-08T02:14:53.103Z,4.12
2023-05-08T02:17:21.414Z,4.47
2023-05-08T02:19:50.517Z,4.28
2023-05-08T02:22:19.683Z,4.45
2023-05-08T02:24:46.636Z,4.22
2023-05-08T02:30:56.807Z,4.28
2023-05-08T02:33:25.220Z,3.97
2023-05-08T02:35:52.336Z,4.62
2023-05-08T02:38:21.631Z,4.30
2023-05-08T02:40:53.054Z,4.10
2023-05-08T02:43:19.733Z,4.60
2023-05-08T02:46:19.781Z,4.55
2023-05-08T02:49:00.253Z,4.37
2023-05-08T02:51:38.046Z,4.20
2023-05-08T02:54:18.069Z,4.60
2023-05-08T03:03:19.781Z,4.12
2023-05-08T03:05:52.754Z,4.12
2023-05-08T03:08:26.872Z,4.90
2023-05-08T03:10:57.905Z,5.53
2023-05-08T03:13:27.976Z,4.62
2023-05-08T03:32:28.539Z,4.70
2023-05-08T03:34:58.701Z,5.10
2023-05-08T03:37:27.446Z,4.82
2023-05-08T03:39:55.776Z,5.55
2023-05-08T03:42:26.708Z,5.40
2023-05-08T03:47:28.973Z,6.05
2023-05-08T03:49:55.613Z,5.97
2023-05-08T03:52:23.497Z,5.72
2023-05-08T03:54:50.039Z,6.22
2023-05-08T03:57:16.638Z,6.43
2023-05-08T04:03:15.324Z,7.03
2023-05-08T04:08:48.154Z,6.75
2023-05-08T04:11:26.999Z,7.32
2023-05-08T04:14:00.641Z,7.50
2023-05-08T04:16:28.701Z,7.37
2023-05-08T04:19:30.309Z,7.20
2023-05-08T04:21:59.695Z,7.65
2023-05-08T04:24:29.070Z,7.07
2023-05-08T04:26:56.062Z,7.85
2023-05-08T04:29:23.366Z,7.80
2023-05-08T04:35:42.157Z,7.85
2023-05-08T04:38:08.877Z,8.10
2023-05-08T04:40:35.574Z,7.85
2023-05-08T04:43:02.228Z,7.60
2023-05-08T04:45:28.890Z,7.75
2023-05-08T04:47:55.552Z,7.22
2023-05-08T04:50:22.270Z,7.65
2023-05-08T04:52:48.869Z,7.37
2023-05-08T04:55:15.640Z,6.87
2023-05-08T04:57:42.259Z,6.68
2023-05-08T05:00:12.506Z,6.93
2023-05-08T05:02:39.168Z,7.95
2023-05-08T05:05:06.506Z,6.55
2023-05-08T05:07:33.109Z,7.30
2023-05-08T05:10:00.626Z,6.97
2023-05-08T05:12:27.225Z,7.03
2023-05-08T05:14:53.784Z,7.35
2023-05-08T05:17:20.325Z,6.25
2023-05-08T05:19:47.249Z,4.97
2023-05-08T05:22:13.842Z,5.03
2023-05-08T05:24:41.514Z,3.97
2023-05-08T05:27:08.314Z,3.10
2023-05-08T05:29:35.044Z,1.92
2023-05-08T05:32:02.286Z,2.10
2023-05-08T05:34:29.084Z,2.00
2023-05-08T05:36:55.713Z,2.17
2023-05-08T05:39:22.279Z,1.77
2023-05-08T05:41:48.938Z,2.00
2023-05-08T05:44:15.480Z,1.80
2023-05-08T05:46:44.230Z,1.70
2023-05-08T05:49:12.281Z,1.33
2023-05-08T05:51:39.170Z,1.70
2023-05-08T05:54:05.792Z,1.75
2023-05-08T05:56:32.368Z,1.90
2023-05-08T05:58:58.950Z,1.50
2023-05-08T06:01:25.576Z,1.67
2023-05-08T06:03:52.257Z,1.85
2023-05-08T06:06:18.827Z,1.77
2023-05-08T06:08:45.427Z,1.60
2023-05-08T06:11:12.052Z,1.58
2023-05-08T06:13:41.838Z,1.50
2023-05-08T06:16:08.396Z,1.55
2023-05-08T06:18:34.951Z,1.55
2023-05-08T06:21:23.432Z,1.55
2023-05-08T06:23:51.151Z,1.50
2023-05-08T06:26:17.711Z,1.55
2023-05-08T06:28:44.244Z,1.42
2023-05-08T06:32:00.790Z,1.90
2023-05-08T06:34:37.349Z,1.58
2023-05-08T06:37:03.898Z,1.67
2023-05-08T06:39:36.531Z,1.40
2023-05-08T06:42:05.018Z,1.60
2023-05-08T06:44:35.496Z,1.40
2023-05-08T06:47:02.785Z,1.70
2023-05-08T06:49:29.471Z,1.70
2023-05-08T06:52:14.495Z,1.45
2023-05-08T06:54:42.067Z,1.80
2023-05-08T06:57:11.065Z,1.70
2023-05-08T06:59:38.524Z,1.80
2023-05-08T07:02:05.111Z,1.70
2023-05-08T07:04:32.293Z,1.70
2023-05-08T07:07:00.481Z,1.60
2023-05-08T07:09:27.210Z,1.55
2023-05-08T07:11:53.808Z,1.70
2023-05-08T07:14:20.417Z,1.55
2023-05-08T07:16:47.001Z,1.75
2023-05-08T07:19:13.701Z,1.58
2023-05-08T07:21:40.371Z,1.42
2023-05-08T07:24:07.259Z,1.30
2023-05-08T07:26:33.863Z,1.40
2023-05-08T07:29:00.410Z,1.30
2023-05-08T07:31:27.046Z,1.20
2023-05-08T07:49:51.523Z,1.42
2023-05-08T07:52:18.119Z,1.40
2023-05-08T07:54:44.721Z,1.50
2023-05-08T07:57:11.911Z,1.58
2023-05-08T07:59:41.732Z,1.45
2023-05-08T08:02:08.383Z,2.30
2023-05-08T08:04:35.234Z,1.30
2023-05-08T08:07:01.920Z,1.40
2023-05-08T08:09:28.506Z,1.50
2023-05-08T08:11:55.070Z,1.20
2023-05-08T08:14:21.623Z,0.98
2023-05-08T08:16:48.217Z,1.42
2023-05-08T08:19:14.808Z,0.90
2023-05-08T08:21:44.495Z,1.30
2023-05-08T08:24:11.072Z,1.37
2023-05-08T08:26:37.749Z,1.15
2023-05-08T08:29:04.688Z,1.40
2023-05-08T08:31:31.498Z,1.30
2023-05-08T08:33:58.117Z,1.25
2023-05-08T08:36:24.729Z,1.27
2023-05-08T08:38:51.648Z,1.40
2023-05-08T08:41:18.488Z,1.48
2023-05-08T08:43:45.092Z,1.27
2023-05-08T08:46:15.936Z,1.27
2023-05-08T08:48:47.152Z,1.70
2023-05-08T08:51:35.966Z,1.45
2023-05-08T08:54:11.809Z,1.20
2023-05-08T08:56:40.791Z,1.60
2023-05-08T08:59:08.747Z,1.42
2023-05-08T09:01:38.622Z,1.23
2023-05-08T09:04:05.875Z,1.10
2023-05-08T09:06:36.685Z,1.35
2023-05-08T09:09:04.052Z,1.25
2023-05-08T09:11:30.900Z,1.20
2023-05-08T09:14:06.591Z,1.10
2023-05-08T09:16:33.218Z,1.10
2023-05-08T09:19:03.331Z,1.20
2023-05-08T09:21:30.489Z,1.02
2023-05-08T09:24:01.951Z,1.20
2023-05-08T09:26:33.321Z,1.17
2023-05-08T09:29:12.401Z,0.60
2023-05-08T09:31:41.489Z,0.80
2023-05-08T09:34:23.043Z,0.70
2023-05-08T09:36:49.945Z,0.98
2023-05-08T09:39:23.808Z,1.00
2023-05-08T09:41:58.779Z,0.88
2023-05-08T09:44:25.508Z,0.75
2023-05-08T09:46:52.063Z,0.80
2023-05-08T09:49:19.092Z,0.80
2023-05-08T09:51:53.980Z,0.52
2023-05-08T09:54:20.905Z,0.60
2023-05-08T09:56:47.744Z,0.50
2023-05-08T09:59:28.204Z,0.50
2023-05-08T10:01:57.946Z,0.50
2023-05-08T10:04:42.324Z,0.50
2023-05-08T10:07:08.971Z,0.77
2023-05-08T10:09:46.813Z,0.55
2023-05-08T10:12:17.216Z,0.47
2023-05-08T10:14:46.515Z,0.40
2023-05-08T10:17:19.904Z,0.52
2023-05-08T10:19:48.465Z,0.47
2023-05-08T10:22:15.825Z,0.52
2023-05-08T10:24:45.024Z,0.70
2023-05-08T10:27:20.512Z,0.65
2023-05-08T10:29:56.345Z,0.60
2023-05-08T10:32:27.092Z,0.60
2023-05-08T10:34:58.837Z,0.68
2023-05-08T10:37:29.196Z,0.43
2023-05-08T10:39:57.281Z,0.50
2023-05-08T10:42:25.203Z,0.50
2023-05-08T10:44:53.242Z,0.50
2023-05-08T10:47:26.775Z,0.57
2023-05-08T10:50:36.964Z,0.50
2023-05-08T10:53:50.339Z,0.57
2023-05-08T10:56:17.160Z,0.70
2023-05-08T10:58:43.726Z,0.60
2023-05-08T11:01:13.401Z,0.50
2023-05-08T11:03:53.174Z,0.60
2023-05-08T11:06:43.618Z,0.40
2023-05-08T11:09:15.582Z,0.50
2023-05-08T11:11:51.149Z,0.45
2023-05-08T11:14:18.267Z,0.40
2023-05-08T11:16:53.605Z,0.75
2023-05-08T11:19:24.825Z,0.50
2023-05-08T11:22:16.331Z,0.50
2023-05-08T11:24:53.519Z,0.52
2023-05-08T11:27:36.205Z,0.45
2023-05-08T11:30:33.269Z,0.25
2023-05-08T11:33:16.155Z,0.60
2023-05-08T11:35:52.112Z,0.50
2023-05-08T11:38:26.455Z,0.70
2023-05-08T11:40:56.051Z,0.50
2023-05-08T11:43:37.571Z,0.50
2023-05-08T11:46:21.632Z,0.40
2023-05-08T11:48:48.815Z,0.60
2023-05-08T11:51:33.815Z,0.52
2023-05-08T11:54:01.141Z,0.47
2023-05-08T11:56:27.935Z,0.40
2023-05-08T11:59:05.415Z,0.60
2023-05-08T12:01:33.229Z,0.50
2023-05-08T12:04:04.614Z,0.50
2023-05-08T12:06:32.499Z,0.50
2023-05-08T12:09:00.828Z,0.47
2023-05-08T12:11:27.619Z,0.32
2023-05-08T12:13:55.050Z,0.50
2023-05-08T12:16:23.657Z,0.40
2023-05-08T12:18:51.586Z,0.60
2023-05-08T12:21:18.271Z,0.60
2023-05-08T12:23:47.311Z,0.47
2023-05-08T12:26:13.882Z,0.45
2023-05-08T12:28:43.173Z,0.43
2023-05-08T12:31:10.407Z,0.60
2023-05-08T12:33:38.668Z,0.43
2023-05-08T12:36:06.791Z,0.40
2023-05-08T12:38:33.309Z,0.45
2023-05-08T12:41:04.375Z,0.65
2023-05-08T12:43:34.397Z,0.50
2023-05-08T12:46:02.193Z,0.40
2023-05-08T12:48:31.748Z,0.37
2023-05-08T12:51:03.915Z,0.60
2023-05-08T12:53:32.854Z,0.50
2023-05-08T12:56:04.146Z,0.52
2023-05-08T12:58:33.023Z,0.40
2023-05-08T13:01:13.654Z,0.43
2023-05-08T13:03:41.144Z,0.50
2023-05-08T13:06:18.968Z,0.60
2023-05-08T13:08:45.655Z,0.57
2023-05-08T13:11:12.207Z,0.57
2023-05-08T13:13:38.779Z,0.40
2023-05-08T13:16:07.072Z,0.50
2023-05-08T13:18:36.634Z,0.50
2023-05-08T13:21:03.759Z,0.43
2023-05-08T13:23:30.591Z,0.65
2023-05-08T13:25:57.232Z,0.80
2023-05-08T13:28:23.798Z,0.65
2023-05-08T13:30:50.399Z,0.75
2023-05-08T13:33:16.954Z,0.62
2023-05-08T13:35:43.515Z,0.45
2023-05-08T13:38:10.070Z,0.70
2023-05-08T13:40:36.659Z,0.50
2023-05-08T13:43:03.228Z,0.55
2023-05-08T13:45:30.074Z,0.60
2023-05-08T13:47:56.870Z,0.82
2023-05-08T13:50:23.882Z,0.70
2023-05-08T13:52:52.301Z,0.60
2023-05-08T13:55:22.831Z,0.60
2023-05-08T13:57:49.786Z,0.70
2023-05-08T14:00:16.789Z,0.50
2023-05-08T14:02:43.675Z,0.50
2023-05-08T14:05:10.583Z,0.52
2023-05-08T14:07:37.216Z,0.70
2023-05-08T14:10:04.415Z,0.65
2023-05-08T14:12:31.153Z,0.50
2023-05-08T14:14:58.239Z,0.60
2023-05-08T14:17:24.842Z,0.60
2023-05-08T14:19:51.435Z,0.57
2023-05-08T14:22:18.080Z,0.50
2023-05-08T14:24:44.621Z,0.50
2023-05-08T14:27:11.553Z,0.62
2023-05-08T14:29:38.551Z,0.60
2023-05-08T14:32:06.188Z,0.60
2023-05-08T14:34:33.125Z,0.70
2023-05-08T14:36:59.740Z,0.60
2023-05-08T14:39:27.500Z,0.82
2023-05-08T14:44:23.573Z,0.60
2023-05-08T14:46:50.255Z,0.65
2023-05-08T14:52:03.573Z,0.90
2023-05-08T14:54:30.360Z,0.60
2023-05-08T14:56:57.001Z,0.50
2023-05-08T14:59:23.590Z,0.90
2023-05-08T15:01:50.290Z,0.40
2023-05-08T15:04:17.103Z,0.55
2023-05-08T15:06:43.810Z,0.70
2023-05-08T15:09:10.494Z,0.47
2023-05-08T15:11:37.389Z,0.50
2023-05-08T15:14:05.078Z,0.50
2023-05-08T15:16:31.776Z,0.60
2023-05-08T15:18:58.433Z,0.70
2023-05-08T15:21:26.847Z,0.65
2023-05-08T15:23:56.541Z,0.60
2023-05-08T15:26:23.417Z,0.77
2023-05-08T15:28:50.803Z,0.55
2023-05-08T15:31:18.306Z,0.70
2023-05-08T15:33:45.396Z,0.70
2023-05-08T15:36:15.484Z,0.57
2023-05-08T15:38:42.723Z,0.73
2023-05-08T15:41:15.177Z,0.70
2023-05-08T15:46:09.036Z,0.65
2023-05-08T15:48:35.760Z,0.90
2023-05-08T15:51:02.502Z,0.60
2023-05-08T15:53:29.099Z,0.80
2023-05-08T15:55:57.112Z,0.70
2023-05-08T15:58:24.133Z,0.70
2023-05-08T16:00:50.807Z,0.80
2023-05-08T16:03:17.833Z,0.75
2023-05-08T16:05:44.852Z,0.60
2023-05-08T16:08:13.125Z,0.75
2023-05-08T16:10:41.074Z,0.70
2023-05-08T16:13:08.357Z,0.62
2023-05-08T16:15:35.139Z,0.90
2023-05-08T16:18:02.622Z,0.80
2023-05-08T16:20:29.438Z,1.00
2023-05-08T16:22:56.181Z,0.90
2023-05-08T16:25:23.344Z,1.00
2023-05-08T16:27:50.354Z,1.00
2023-05-08T16:30:17.980Z,1.10
2023-05-08T16:32:47.509Z,1.10
2023-05-08T16:35:14.918Z,1.12
2023-05-08T16:37:42.966Z,1.12
2023-05-08T16:40:10.246Z,0.98
2023-05-08T16:42:37.309Z,1.45
2023-05-08T16:45:05.170Z,0.90
2023-05-08T16:47:32.128Z,1.15
2023-05-08T16:49:58.929Z,1.10
2023-05-08T16:52:25.969Z,1.35
2023-05-08T16:54:52.834Z,1.20
2023-05-08T16:57:19.369Z,1.40
2023-05-08T16:59:45.920Z,1.50
2023-05-08T17:02:15.707Z,1.17
2023-05-08T17:04:42.425Z,1.40
2023-05-08T17:07:08.960Z,1.50
2023-05-08T17:09:35.595Z,1.30
2023-05-08T17:12:02.271Z,1.17
2023-05-08T17:14:28.829Z,1.20
2023-05-08T17:16:55.545Z,1.20
2023-05-08T17:19:40.695Z,1.23
2023-05-08T17:22:07.293Z,1.83
2023-05-08T17:24:36.426Z,1.40
2023-05-08T17:27:03.587Z,1.50
2023-05-08T17:30:33.398Z,1.50
2023-05-08T17:33:21.660Z,1.70
2023-05-08T17:35:48.309Z,1.73
2023-05-08T17:38:14.902Z,1.60
2023-05-08T17:40:41.499Z,1.98
2023-05-08T17:43:11.624Z,1.55
2023-05-08T17:45:41.175Z,1.55
2023-05-08T17:48:07.901Z,1.58
2023-05-08T17:50:35.218Z,1.48
2023-05-08T17:53:02.109Z,1.40
2023-05-08T17:55:30.595Z,1.60
2023-05-08T17:57:57.872Z,1.62
2023-05-08T18:00:24.571Z,1.60
2023-05-08T18:02:51.199Z,1.65
2023-05-08T18:05:18.103Z,1.73
2023-05-08T18:07:44.679Z,1.60
2023-05-08T18:10:11.433Z,1.70
2023-05-08T18:12:38.193Z,1.55
2023-05-08T18:15:06.768Z,1.90
2023-05-08T18:17:33.487Z,1.83
2023-05-08T18:32:29.487Z,2.10
2023-05-08T18:34:57.144Z,2.37
2023-05-08T18:37:29.531Z,1.90
2023-05-08T18:39:56.346Z,2.25
2023-05-08T18:45:00.273Z,1.85
2023-05-08T18:47:26.929Z,2.55
2023-05-08T18:50:03.100Z,2.00
2023-05-08T18:53:03.978Z,2.30
2023-05-08T18:56:26.581Z,2.22
2023-05-08T18:58:53.142Z,2.22
2023-05-08T19:01:21.172Z,1.90
2023-05-08T19:03:48.386Z,2.08
2023-05-08T19:06:15.141Z,2.00
2023-05-08T19:08:41.757Z,1.90
2023-05-08T19:11:11.469Z,2.30
2023-05-08T19:13:38.625Z,2.10
2023-05-08T19:16:05.729Z,2.30
2023-05-08T19:18:32.408Z,2.22
2023-05-08T19:20:59.349Z,2.30
2023-05-08T19:23:25.919Z,2.33
2023-05-08T19:25:52.973Z,2.17
2023-05-08T19:28:19.586Z,2.30
2023-05-08T19:30:46.131Z,2.03
2023-05-08T19:33:15.340Z,2.53
2023-05-08T19:35:42.673Z,2.47
2023-05-08T19:38:09.228Z,2.47
2023-05-08T19:40:44.776Z,1.95
2023-05-08T19:43:21.821Z,2.30
2023-05-08T19:45:48.425Z,2.20
2023-05-08T19:48:17.954Z,2.58
2023-05-08T19:50:45.018Z,2.45
2023-05-08T19:53:11.655Z,2.50
2023-05-08T19:55:38.204Z,2.33
2023-05-08T19:58:04.758Z,2.45
2023-05-08T20:00:31.345Z,2.08
2023-05-08T20:02:58.015Z,2.33
2023-05-08T20:05:24.628Z,2.28
2023-05-08T20:07:51.257Z,2.08
2023-05-08T20:10:17.993Z,2.30
2023-05-08T20:12:44.644Z,2.42
2023-05-08T20:15:11.646Z,1.85
2023-05-08T20:17:38.481Z,2.10
2023-05-08T20:20:05.835Z,2.10
2023-05-08T20:22:32.449Z,2.60
2023-05-08T20:25:03.529Z,2.40
2023-05-08T20:27:40.404Z,2.53
2023-05-08T20:30:07.558Z,2.10
2023-05-08T20:32:34.214Z,2.20
2023-05-08T20:35:01.799Z,2.50
2023-05-08T20:40:48.350Z,2.37
2023-05-08T20:43:16.875Z,2.22
2023-05-08T20:45:43.583Z,2.70
2023-05-08T20:48:10.242Z,2.33
2023-05-08T20:50:36.811Z,2.25
2023-05-08T20:53:03.545Z,2.22
2023-05-08T20:55:30.111Z,2.33
2023-05-08T20:57:59.362Z,2.42
2023-05-08T21:00:26.128Z,2.62
2023-05-08T21:02:52.744Z,2.22
2023-05-08T21:05:19.338Z,2.53
2023-05-08T21:07:45.898Z,2.30
2023-05-08T21:10:12.817Z,2.40
2023-05-08T21:12:39.443Z,2.28
2023-05-08T21:15:06.834Z,2.20
2023-05-08T21:17:33.400Z,2.40
2023-05-08T21:19:59.928Z,2.40
2023-05-08T21:22:26.456Z,2.37
2023-05-08T21:24:53.013Z,2.28
2023-05-08T21:27:19.579Z,2.22
2023-05-08T21:29:46.110Z,2.28
2023-05-08T21:32:12.634Z,2.20
2023-05-08T21:34:39.163Z,2.33
2023-05-08T21:37:05.717Z,2.03
2023-05-08T21:39:32.454Z,2.30
2023-05-08T21:42:09.701Z,2.40
2023-05-08T21:44:36.326Z,2.50
2023-05-08T21:47:02.927Z,2.50
2023-05-08T21:49:31.555Z,2.37
2023-05-08T21:52:29.398Z,2.50
2023-05-08T21:55:23.882Z,2.70
2023-05-08T21:57:50.933Z,2.67
2023-05-08T22:00:17.869Z,2.20
2023-05-08T22:02:44.497Z,2.60
2023-05-08T22:05:12.125Z,2.55
2023-05-08T22:07:38.959Z,2.35
2023-05-08T22:10:06.237Z,2.30
2023-05-08T22:12:32.788Z,2.33
2023-05-08T22:14:59.308Z,2.47
2023-05-08T22:17:25.908Z,2.10
2023-05-08T22:19:52.474Z,2.20
2023-05-08T22:22:18.999Z,2.75
2023-05-08T22:24:45.597Z,2.40
2023-05-08T22:27:12.119Z,2.75
2023-05-08T22:29:38.680Z,2.65
2023-05-08T22:32:05.361Z,2.40
2023-05-08T22:34:31.959Z,2.50
2023-05-08T22:36:58.903Z,2.30
2023-05-08T22:39:26.246Z,2.90
2023-05-08T22:41:53.594Z,2.83
2023-05-08T22:44:20.236Z,2.80
2023-05-08T22:46:47.021Z,2.60
2023-05-08T22:49:13.786Z,2.62
2023-05-08T22:55:05.840Z,2.53
2023-05-08T22:57:32.419Z,2.30
2023-05-08T22:59:58.962Z,2.75
2023-05-08T23:02:32.024Z,2.55
2023-05-08T23:04:58.878Z,2.75
2023-05-08T23:07:25.494Z,2.70
2023-05-08T23:12:32.780Z,2.50
2023-05-08T23:14:59.571Z,2.30
2023-05-08T23:17:26.347Z,2.50
2023-05-08T23:19:52.913Z,2.35
2023-05-08T23:22:50.635Z,2.35
2023-05-08T23:25:37.329Z,2.30
2023-05-08T23:28:03.912Z,2.33
2023-05-08T23:30:30.534Z,2.58
2023-05-08T23:32:57.149Z,2.42
2023-05-08T23:35:23.708Z,2.25
2023-05-08T23:37:50.373Z,2.50
2023-05-08T23:40:17.475Z,2.58
2023-05-08T23:42:44.072Z,2.70
2023-05-08T23:45:12.101Z,2.62
2023-05-08T23:47:39.153Z,2.80
2023-05-08T23:50:06.378Z,2.70
2023-05-08T23:52:32.900Z,2.67
2023-05-08T23:57:40.704Z,2.55
